Time;durP1;ratioP1;P1;durP2;ratioP2;P2;SDS_P1;SDS_P2;PMS_P1;PMS_P2;Temp;Humidity;BMP_temperature;BMP_pressure;BME280_temperature;BME280_humidity;BME280_pressure;Samples;Min_cycle;Max_cycle;Signal;HPM_P1;HPM_P2
2023/09/05 00:00:10;;;;;;;0.10;0.10;;;20.10;99.90;;;;;;5066378;28;20182;-82
2023/09/05 00:02:43;;;;;;;0.10;0.10;;;20.00;99.90;;;;;;5051009;28;20607;-82
2023/09/05 00:05:09;;;;;;;0.10;0.10;;;19.90;99.90;;;;;;5049408;28;20189;-83
2023/09/05 00:07:35;;;;;;;0.10;0.10;;;19.80;99.90;;;;;;5050468;28;20216;-82
2023/09/05 00:10:03;;;;;;;0.10;0.10;;;19.70;99.90;;;;;;5048552;28;20197;-82
2023/09/05 00:12:29;;;;;;;0.10;0.10;;;19.70;99.90;;;;;;5040480;28;20289;-81
2023/09/05 00:14:55;;;;;;;0.10;0.10;;;19.70;99.90;;;;;;5050822;28;20196;-82
2023/09/05 00:17:21;;;;;;;0.10;0.10;;;19.70;99.90;;;;;;5050090;28;20690;-83
2023/09/05 00:19:47;;;;;;;0.20;0.20;;;19.70;99.90;;;;;;5048791;28;20181;-83
2023/09/05 00:22:12;;;;;;;0.83;0.83;;;19.60;99.90;;;;;;5049799;28;20213;-82
2023/09/05 00:24:38;;;;;;;0.10;0.10;;;19.70;99.90;;;;;;5064456;28;20647;-82
2023/09/05 00:27:09;;;;;;;0.10;0.10;;;19.70;99.90;;;;;;5047569;28;20255;-83
2023/09/05 00:29:35;;;;;;;0.10;0.10;;;19.70;99.90;;;;;;5050320;28;20181;-82
2023/09/05 00:32:03;;;;;;;0.10;0.10;;;19.60;99.90;;;;;;5048261;28;20242;-82
2023/09/05 00:34:34;;;;;;;0.10;0.10;;;19.60;99.90;;;;;;5048983;28;20219;-82
2023/09/05 00:37:01;;;;;;;0.10;0.10;;;19.50;99.90;;;;;;5050003;28;21201;-82
2023/09/05 00:39:30;;;;;;;4.83;4.63;;;19.50;99.90;;;;;;5047517;28;20211;-82
2023/09/05 00:41:57;;;;;;;0.10;0.10;;;19.50;99.90;;;;;;5048824;28;20292;-82
2023/09/05 00:44:27;;;;;;;0.10;0.10;;;19.40;99.90;;;;;;5048609;28;20188;-82
2023/09/05 00:46:54;;;;;;;0.10;0.10;;;19.40;99.90;;;;;;5049140;28;20212;-83
2023/09/05 00:49:22;;;;;;;0.10;0.10;;;19.30;99.90;;;;;;5056411;28;20246;-82
2023/09/05 00:51:52;;;;;;;0.10;0.10;;;19.30;99.90;;;;;;5050226;28;20678;-82
2023/09/05 00:54:18;;;;;;;0.10;0.10;;;19.30;99.90;;;;;;5046943;28;20218;-82
2023/09/05 00:56:44;;;;;;;0.10;0.10;;;19.30;99.90;;;;;;5040819;28;20213;-82
2023/09/05 00:59:11;;;;;;;0.10;0.10;;;19.30;99.90;;;;;;5065576;28;20189;-83
2023/09/05 01:01:37;;;;;;;0.10;0.10;;;19.30;99.90;;;;;;5045350;28;20212;-82
2023/09/05 01:04:03;;;;;;;0.10;0.10;;;19.20;99.90;;;;;;5047186;28;20223;-82
2023/09/05 01:06:56;;;;;;;0.10;0.10;;;19.20;99.90;;;;;;5039854;28;20288;-82
2023/09/05 01:09:44;;;;;;;0.10;0.10;;;19.20;99.90;;;;;;5048278;28;20193;-82
2023/09/05 01:12:11;;;;;;;0.10;0.10;;;19.20;99.90;;;;;;5064278;28;20659;-83
2023/09/05 01:14:36;;;;;;;0.10;0.10;;;19.10;99.90;;;;;;5049839;28;20224;-82
2023/09/05 01:17:02;;;;;;;0.10;0.10;;;19.10;99.90;;;;;;5047412;28;20236;-82
2023/09/05 01:19:29;;;;;;;0.10;0.10;;;19.10;99.90;;;;;;5047957;28;20574;-82
2023/09/05 01:22:01;;;;;;;0.10;0.10;;;19.10;99.90;;;;;;5048069;28;20213;-82
2023/09/05 01:24:26;;;;;;;0.10;0.10;;;19.10;99.90;;;;;;5049455;28;20173;-82
2023/09/05 01:26:53;;;;;;;0.10;0.10;;;19.10;99.90;;;;;;5048079;28;20993;-82
2023/09/05 01:29:30;;;;;;;0.10;0.10;;;19.10;99.90;;;;;;5046414;28;20193;-82
2023/09/05 01:31:58;;;;;;;0.10;0.10;;;19.10;99.90;;;;;;5049984;28;20654;-82
2023/09/05 01:34:24;;;;;;;0.10;0.10;;;19.10;99.90;;;;;;5049378;28;20618;-83
2023/09/05 01:36:50;;;;;;;0.10;0.10;;;19.00;99.90;;;;;;5047027;28;20288;-82
2023/09/05 01:39:15;;;;;;;0.10;0.10;;;19.00;99.90;;;;;;5064163;28;20198;-82
2023/09/05 01:41:41;;;;;;;0.10;0.10;;;19.10;99.90;;;;;;5040920;28;20205;-82
2023/09/05 01:44:07;;;;;;;0.10;0.10;;;19.00;99.90;;;;;;5048297;28;20186;-82
2023/09/05 01:46:32;;;;;;;0.10;0.10;;;19.00;99.90;;;;;;5047467;28;20213;-82
2023/09/05 01:48:58;;;;;;;0.10;0.10;;;19.00;99.90;;;;;;5048907;28;20218;-82
2023/09/05 01:51:23;;;;;;;0.10;0.10;;;19.00;99.90;;;;;;5049676;28;20260;-82
2023/09/05 01:53:49;;;;;;;0.10;0.10;;;19.00;99.90;;;;;;5048277;28;20178;-82
2023/09/05 01:56:14;;;;;;;0.10;0.10;;;19.00;99.90;;;;;;5048424;28;20209;-82
2023/09/05 01:58:40;;;;;;;0.10;0.10;;;19.00;99.90;;;;;;5048953;28;20578;-82
2023/09/05 02:01:05;;;;;;;0.10;0.10;;;19.00;99.90;;;;;;5047543;28;20251;-82
2023/09/05 02:03:31;;;;;;;0.10;0.10;;;19.00;99.90;;;;;;5048345;28;20221;-82
2023/09/05 02:05:56;;;;;;;0.10;0.10;;;19.10;99.90;;;;;;5047741;28;20202;-82
2023/09/05 02:08:22;;;;;;;0.10;0.10;;;19.00;99.90;;;;;;5047876;28;20190;-83
2023/09/05 02:10:48;;;;;;;0.10;0.10;;;19.00;99.90;;;;;;5046551;28;20178;-82
2023/09/05 02:13:13;;;;;;;0.83;0.83;;;18.90;99.90;;;;;;5048893;28;20186;-82
2023/09/05 02:15:39;;;;;;;0.10;0.10;;;18.90;99.90;;;;;;5047859;28;20666;-82
2023/09/05 02:18:11;;;;;;;0.10;0.10;;;18.90;99.90;;;;;;5048959;28;20241;-82
2023/09/05 02:20:40;;;;;;;0.10;0.10;;;18.90;99.90;;;;;;5048321;28;20218;-82
2023/09/05 02:23:06;;;;;;;0.10;0.10;;;18.80;99.90;;;;;;5048360;28;20218;-82
2023/09/05 02:25:32;;;;;;;0.10;0.10;;;18.80;99.90;;;;;;5049143;28;20257;-82
2023/09/05 02:27:57;;;;;;;0.10;0.10;;;18.80;99.90;;;;;;5047230;28;20223;-82
2023/09/05 02:30:24;;;;;;;0.10;0.10;;;18.80;99.90;;;;;;5048926;28;20193;-82
2023/09/05 02:32:54;;;;;;;0.10;0.10;;;18.70;99.90;;;;;;5047139;28;20197;-82
2023/09/05 02:35:27;;;;;;;0.10;0.10;;;18.60;99.90;;;;;;5048572;28;20651;-83
2023/09/05 02:40:43;;;;;;;0.10;0.10;;;18.70;99.90;;;;;;6054043;23;20257;-80
2023/09/05 02:43:09;;;;;;;0.10;0.10;;;18.70;99.90;;;;;;4993511;28;20223;-81
2023/09/05 02:45:34;;;;;;;0.10;0.10;;;18.60;99.90;;;;;;5002281;28;20199;-80
2023/09/05 02:48:00;;;;;;;0.10;0.10;;;18.60;99.90;;;;;;4985031;28;20594;-81
2023/09/05 02:50:25;;;;;;;0.10;0.10;;;18.50;99.90;;;;;;4986634;28;20191;-80
2023/09/05 02:52:51;;;;;;;0.10;0.10;;;18.60;99.90;;;;;;4991828;28;20279;-80
2023/09/05 02:55:16;;;;;;;0.10;0.10;;;18.50;99.90;;;;;;4988205;28;20642;-80
2023/09/05 02:57:42;;;;;;;0.10;0.10;;;18.60;99.90;;;;;;4987615;28;20269;-80
2023/09/05 03:00:08;;;;;;;0.10;0.10;;;18.60;99.90;;;;;;4984959;28;20207;-81
2023/09/05 03:02:35;;;;;;;0.10;0.10;;;18.50;99.90;;;;;;4985360;28;20219;-81
2023/09/05 03:05:01;;;;;;;0.10;0.10;;;18.50;99.90;;;;;;4986631;28;20183;-80
2023/09/05 03:07:26;;;;;;;0.10;0.10;;;18.50;99.90;;;;;;4996704;28;20182;-80
2023/09/05 03:09:52;;;;;;;0.10;0.10;;;18.50;99.90;;;;;;4992423;28;20756;-80
2023/09/05 03:12:18;;;;;;;0.10;0.10;;;18.50;99.90;;;;;;4989108;28;20297;-81
2023/09/05 03:14:45;;;;;;;0.10;0.10;;;18.40;99.90;;;;;;4994474;28;20194;-80
2023/09/05 03:17:11;;;;;;;0.10;0.10;;;18.40;99.90;;;;;;4987021;28;20196;-80
2023/09/05 03:19:38;;;;;;;0.10;0.10;;;18.40;99.90;;;;;;4992016;28;20215;-80
2023/09/05 03:22:05;;;;;;;0.10;0.10;;;18.40;99.90;;;;;;4993053;28;20278;-81
2023/09/05 03:24:30;;;;;;;0.10;0.10;;;18.40;99.90;;;;;;4991070;28;20185;-80
2023/09/05 03:26:56;;;;;;;0.10;0.10;;;18.40;99.90;;;;;;4983567;28;20678;-80
2023/09/05 03:29:21;;;;;;;0.10;0.10;;;18.40;99.90;;;;;;4986257;28;20768;-80
2023/09/05 03:31:47;;;;;;;0.10;0.10;;;18.40;99.90;;;;;;4999802;28;20240;-80
2023/09/05 03:34:12;;;;;;;0.10;0.10;;;18.30;99.90;;;;;;4991394;28;20294;-80
2023/09/05 03:36:38;;;;;;;0.10;0.10;;;18.30;99.90;;;;;;4992745;28;20651;-80
2023/09/05 03:39:03;;;;;;;0.10;0.10;;;18.30;99.90;;;;;;4985882;28;20893;-80
2023/09/05 03:41:30;;;;;;;0.10;0.10;;;18.30;99.90;;;;;;4983499;28;20275;-81
2023/09/05 03:43:56;;;;;;;0.10;0.10;;;18.30;99.90;;;;;;4982935;28;20200;-80
2023/09/05 03:46:21;;;;;;;0.10;0.10;;;18.30;99.90;;;;;;4990413;28;20404;-81
2023/09/05 03:48:49;;;;;;;0.10;0.10;;;18.20;99.90;;;;;;4988924;28;20182;-80
2023/09/05 03:51:15;;;;;;;1.80;1.80;;;18.30;99.90;;;;;;4983674;28;20219;-81
2023/09/05 03:53:40;;;;;;;0.10;0.10;;;18.30;99.90;;;;;;4990228;28;20735;-81
2023/09/05 03:56:06;;;;;;;0.10;0.10;;;18.30;99.90;;;;;;4982435;28;20188;-80
2023/09/05 03:58:31;;;;;;;0.10;0.10;;;18.30;99.90;;;;;;4985125;28;20219;-80
2023/09/05 04:01:01;;;;;;;0.10;0.10;;;18.30;99.90;;;;;;4994472;28;20271;-80
2023/09/05 04:03:27;;;;;;;0.10;0.10;;;18.30;99.90;;;;;;4984576;28;20287;-80
2023/09/05 04:05:53;;;;;;;0.10;0.10;;;18.20;99.90;;;;;;4983481;28;20660;-81
2023/09/05 04:08:18;;;;;;;0.10;0.10;;;18.20;99.90;;;;;;4998372;28;20187;-80
2023/09/05 04:10:44;;;;;;;0.10;0.10;;;18.20;99.90;;;;;;4993389;28;20211;-80
2023/09/05 04:13:10;;;;;;;0.10;0.10;;;18.20;99.90;;;;;;4978403;28;20655;-80
2023/09/05 04:15:36;;;;;;;0.10;0.10;;;18.20;99.90;;;;;;4986424;28;20212;-80
2023/09/05 04:18:02;;;;;;;0.10;0.10;;;18.20;99.90;;;;;;4985189;28;20194;-81
2023/09/05 04:20:28;;;;;;;0.10;0.10;;;18.10;99.90;;;;;;4984572;28;20247;-80
2023/09/05 04:22:54;;;;;;;0.10;0.10;;;18.10;99.90;;;;;;4985065;28;20659;-81
2023/09/05 04:25:20;;;;;;;0.10;0.10;;;18.10;99.90;;;;;;4985966;28;20278;-80
2023/09/05 04:27:45;;;;;;;0.10;0.10;;;18.00;99.90;;;;;;4985357;28;20323;-80
2023/09/05 04:30:12;;;;;;;0.10;0.10;;;18.00;99.90;;;;;;4993217;28;20219;-80
2023/09/05 04:32:38;;;;;;;0.10;0.10;;;18.00;99.90;;;;;;4999523;28;20212;-80
2023/09/05 04:35:05;;;;;;;0.10;0.10;;;18.00;99.90;;;;;;4991064;28;20665;-80
2023/09/05 04:37:31;;;;;;;0.10;0.10;;;18.00;99.90;;;;;;4986207;28;20191;-81
2023/09/05 04:39:57;;;;;;;0.10;0.10;;;18.00;99.90;;;;;;4991247;28;20226;-80
2023/09/05 04:42:25;;;;;;;0.10;0.10;;;17.90;99.90;;;;;;4991089;28;20737;-80
2023/09/05 04:44:51;;;;;;;0.10;0.10;;;17.90;99.90;;;;;;4986072;28;20188;-80
2023/09/05 04:47:27;;;;;;;0.10;0.10;;;17.90;99.90;;;;;;4985345;28;20182;-81
2023/09/05 04:49:56;;;;;;;0.10;0.10;;;17.90;99.90;;;;;;4990728;28;20253;-80
2023/09/05 04:52:23;;;;;;;0.10;0.10;;;17.90;99.90;;;;;;4985123;28;20280;-81
2023/09/05 04:54:49;;;;;;;0.10;0.10;;;18.00;99.90;;;;;;4988234;28;20190;-81
2023/09/05 04:57:16;;;;;;;0.10;0.10;;;18.00;99.90;;;;;;4987488;28;20188;-81
2023/09/05 04:59:53;;;;;;;0.10;0.10;;;18.00;99.90;;;;;;4980684;28;20200;-81
2023/09/05 05:02:19;;;;;;;0.10;0.10;;;18.00;99.90;;;;;;4988755;28;20620;-81
2023/09/05 05:04:45;;;;;;;0.10;0.10;;;18.10;99.90;;;;;;4977029;28;20184;-81
2023/09/05 05:07:11;;;;;;;0.10;0.10;;;18.10;99.90;;;;;;4987356;28;20260;-81
2023/09/05 05:09:39;;;;;;;0.10;0.10;;;18.10;99.90;;;;;;4982317;28;20195;-80
2023/09/05 05:12:05;;;;;;;0.10;0.10;;;18.10;99.90;;;;;;4986376;28;20217;-81
2023/09/05 05:14:30;;;;;;;0.10;0.10;;;18.10;99.90;;;;;;4980163;28;21138;-81
2023/09/05 05:16:56;;;;;;;0.10;0.10;;;18.10;99.90;;;;;;4988526;28;20198;-82
2023/09/05 05:19:21;;;;;;;0.10;0.10;;;18.10;99.90;;;;;;4978527;28;20200;-81
2023/09/05 05:21:51;;;;;;;0.10;0.10;;;18.10;99.90;;;;;;4978707;28;20350;-81
2023/09/05 05:24:17;;;;;;;0.10;0.10;;;18.10;99.90;;;;;;4984776;28;20244;-81
2023/09/05 05:26:43;;;;;;;0.10;0.10;;;18.10;99.90;;;;;;4978608;28;20659;-81
2023/09/05 05:29:09;;;;;;;0.10;0.10;;;18.20;99.90;;;;;;4986309;28;20655;-81
2023/09/05 05:31:36;;;;;;;0.10;0.10;;;18.20;99.90;;;;;;4985971;28;20343;-86
2023/09/05 05:34:02;;;;;;;0.10;0.10;;;18.30;99.90;;;;;;4987607;28;20191;-86
2023/09/05 05:36:29;;;;;;;0.10;0.10;;;18.30;99.90;;;;;;4986337;28;20183;-85
2023/09/05 05:38:55;;;;;;;0.10;0.10;;;18.40;99.90;;;;;;4996290;28;20299;-86
2023/09/05 05:41:21;;;;;;;0.10;0.10;;;18.50;99.90;;;;;;4984999;28;20219;-86
2023/09/05 05:43:46;;;;;;;0.10;0.10;;;18.50;99.90;;;;;;4984997;28;20219;-86
2023/09/05 05:46:13;;;;;;;0.07;0.07;;;18.60;99.90;;;;;;4977982;28;20203;-86
2023/09/05 05:48:39;;;;;;;0.10;0.10;;;18.70;99.90;;;;;;4995108;28;20195;-87
2023/09/05 05:51:05;;;;;;;0.10;0.10;;;18.80;99.90;;;;;;4987364;28;20269;-86
2023/09/05 05:53:30;;;;;;;0.10;0.10;;;18.90;99.90;;;;;;4981697;28;20250;-86
2023/09/05 05:55:56;;;;;;;0.10;0.10;;;19.00;99.90;;;;;;4979602;28;20325;-86
2023/09/05 05:58:21;;;;;;;0.10;0.10;;;19.00;99.90;;;;;;4987023;28;20194;-86
2023/09/05 06:00:50;;;;;;;0.10;0.10;;;19.00;99.90;;;;;;4979806;28;20215;-86
2023/09/05 06:03:20;;;;;;;0.10;0.10;;;19.10;99.90;;;;;;4978460;28;20605;-86
2023/09/05 06:05:46;;;;;;;0.10;0.10;;;19.20;99.90;;;;;;4979059;28;20182;-86
2023/09/05 06:08:11;;;;;;;0.10;0.10;;;19.30;99.90;;;;;;4987077;28;20206;-86
2023/09/05 06:10:37;;;;;;;0.10;0.10;;;19.30;99.90;;;;;;4986223;28;20196;-86
2023/09/05 06:13:04;;;;;;;0.10;0.10;;;19.60;99.90;;;;;;4978819;28;20732;-86
2023/09/05 06:15:33;;;;;;;0.10;0.10;;;19.60;99.90;;;;;;4985890;28;20208;-86
2023/09/05 06:18:00;;;;;;;0.10;0.10;;;19.70;99.90;;;;;;4978666;28;20185;-86
2023/09/05 06:20:26;;;;;;;0.10;0.10;;;19.80;99.90;;;;;;4975415;28;20215;-85
2023/09/05 06:22:51;;;;;;;0.10;0.10;;;19.80;99.90;;;;;;4983841;28;20252;-83
2023/09/05 06:25:17;;;;;;;0.10;0.10;;;19.90;99.90;;;;;;4984433;28;20180;-83
2023/09/05 06:27:43;;;;;;;0.10;0.10;;;19.90;99.90;;;;;;4984645;28;21042;-83
2023/09/05 06:30:13;;;;;;;0.10;0.10;;;20.10;99.90;;;;;;4984871;28;20180;-83
2023/09/05 06:32:39;;;;;;;0.10;0.10;;;20.40;99.90;;;;;;4985760;28;20200;-83
2023/09/05 06:35:05;;;;;;;0.10;0.10;;;20.40;99.90;;;;;;4980453;28;20235;-83
2023/09/05 06:37:33;;;;;;;0.10;0.10;;;20.40;99.90;;;;;;4978086;28;20266;-82
2023/09/05 06:39:59;;;;;;;0.10;0.10;;;20.40;99.90;;;;;;4985680;28;20215;-81
2023/09/05 06:42:25;;;;;;;0.10;0.10;;;20.30;99.90;;;;;;4978570;28;20625;-81
2023/09/05 06:44:50;;;;;;;0.10;0.10;;;20.30;99.90;;;;;;4986812;28;20267;-81
2023/09/05 06:47:16;;;;;;;0.10;0.10;;;20.50;99.90;;;;;;4980635;28;20187;-81
2023/09/05 06:49:41;;;;;;;0.10;0.10;;;20.70;99.90;;;;;;4980343;28;20194;-81
2023/09/05 06:52:07;;;;;;;0.10;0.10;;;20.70;99.90;;;;;;4986572;28;20765;-81
2023/09/05 06:54:32;;;;;;;0.10;0.10;;;20.50;99.90;;;;;;4981009;28;20693;-81
2023/09/05 06:56:58;;;;;;;0.10;0.10;;;20.80;99.90;;;;;;4986429;28;20184;-81
2023/09/05 06:59:24;;;;;;;0.10;0.10;;;20.80;99.90;;;;;;4992629;28;20187;-81
2023/09/05 07:01:49;;;;;;;0.10;0.10;;;20.90;99.90;;;;;;4977496;28;20284;-81
2023/09/05 07:04:15;;;;;;;0.10;0.10;;;21.00;99.90;;;;;;4980348;28;20204;-81
2023/09/05 07:06:40;;;;;;;0.10;0.10;;;21.10;99.90;;;;;;4983065;28;20187;-81
2023/09/05 07:09:06;;;;;;;0.10;0.10;;;21.20;99.90;;;;;;4992504;28;20191;-81
2023/09/05 07:11:33;;;;;;;0.10;0.10;;;20.70;99.90;;;;;;4994844;28;20212;-81
2023/09/05 07:13:58;;;;;;;0.10;0.10;;;20.70;99.90;;;;;;4994871;28;20188;-81
2023/09/05 07:16:24;;;;;;;0.10;0.10;;;20.80;99.90;;;;;;4992321;28;20271;-81
2023/09/05 07:18:49;;;;;;;0.10;0.10;;;20.90;99.90;;;;;;4980461;28;20274;-81
2023/09/05 07:21:15;;;;;;;0.10;0.10;;;21.10;99.90;;;;;;4984597;28;20215;-81
2023/09/05 07:23:40;;;;;;;0.10;0.10;;;21.00;99.90;;;;;;4985001;28;20608;-81
2023/09/05 07:26:07;;;;;;;0.10;0.10;;;21.30;99.90;;;;;;4979959;28;20188;-81
2023/09/05 07:28:33;;;;;;;0.10;0.10;;;21.20;99.90;;;;;;4979791;28;20212;-81
2023/09/05 07:31:00;;;;;;;0.10;0.10;;;21.50;99.90;;;;;;4977461;28;20246;-81
2023/09/05 07:33:25;;;;;;;0.10;0.10;;;21.80;99.90;;;;;;4983382;28;20187;-83
2023/09/05 07:35:51;;;;;;;0.10;0.10;;;21.70;99.90;;;;;;4985047;28;20188;-82
2023/09/05 07:38:20;;;;;;;0.10;0.10;;;21.60;99.90;;;;;;4987587;28;20184;-81
2023/09/05 07:40:47;;;;;;;0.10;0.10;;;21.80;99.90;;;;;;4979485;28;20200;-81
2023/09/05 07:43:13;;;;;;;0.10;0.10;;;21.90;99.90;;;;;;4980378;28;20211;-81
2023/09/05 07:45:39;;;;;;;0.10;0.10;;;21.90;99.90;;;;;;4989440;28;20191;-81
2023/09/05 07:48:07;;;;;;;0.10;0.10;;;22.00;99.90;;;;;;4989424;28;20218;-80
2023/09/05 07:50:34;;;;;;;0.10;0.10;;;22.10;99.90;;;;;;4980146;28;20234;-81
2023/09/05 07:53:00;;;;;;;0.40;0.40;;;22.40;99.90;;;;;;4987627;28;20689;-81
2023/09/05 07:55:25;;;;;;;0.10;0.10;;;22.50;99.90;;;;;;4980166;28;20207;-81
2023/09/05 07:57:52;;;;;;;0.10;0.10;;;22.30;99.90;;;;;;4987711;28;20215;-81
2023/09/05 08:00:19;;;;;;;0.10;0.10;;;22.20;99.90;;;;;;4987735;28;20184;-81
2023/09/05 08:02:44;;;;;;;0.10;0.10;;;22.30;99.90;;;;;;4980135;28;20215;-81
2023/09/05 08:05:10;;;;;;;0.10;0.10;;;22.70;99.90;;;;;;4979893;28;20180;-81
2023/09/05 08:07:37;;;;;;;0.10;0.10;;;22.60;99.90;;;;;;4995003;28;20216;-81
2023/09/05 08:10:04;;;;;;;0.10;0.10;;;22.60;99.90;;;;;;4995092;28;20654;-81
2023/09/05 08:12:30;;;;;;;0.10;0.10;;;22.40;99.90;;;;;;4979460;28;20694;-81
2023/09/05 08:14:56;;;;;;;0.10;0.10;;;22.50;99.90;;;;;;4987715;28;20198;-81
2023/09/05 08:17:22;;;;;;;0.10;0.10;;;22.50;99.90;;;;;;4981922;28;20191;-81
2023/09/05 08:19:47;;;;;;;0.10;0.10;;;22.30;99.90;;;;;;4985158;28;20283;-81
2023/09/05 08:22:13;;;;;;;0.10;0.10;;;22.60;99.90;;;;;;4983247;28;20207;-81
2023/09/05 08:24:38;;;;;;;0.10;0.10;;;23.00;99.90;;;;;;4981549;28;20192;-84
2023/09/05 08:27:05;;;;;;;0.10;0.10;;;23.10;99.90;;;;;;4989377;28;20274;-79
2023/09/05 08:29:31;;;;;;;0.10;0.10;;;23.20;99.90;;;;;;4980867;28;20191;-79
2023/09/05 08:31:58;;;;;;;0.10;0.10;;;23.30;99.90;;;;;;4984369;28;20215;-80
2023/09/05 08:34:24;;;;;;;0.10;0.10;;;23.70;99.90;;;;;;4981598;28;20196;-81
2023/09/05 08:36:49;;;;;;;0.10;0.10;;;23.40;99.90;;;;;;4981142;28;20192;-80
2023/09/05 08:39:15;;;;;;;0.10;0.10;;;23.60;99.90;;;;;;4981218;28;20196;-81
2023/09/05 08:41:42;;;;;;;0.10;0.10;;;23.90;99.90;;;;;;4981896;28;20219;-81
2023/09/05 08:44:08;;;;;;;0.10;0.10;;;23.70;99.90;;;;;;4987142;28;20199;-80
2023/09/05 08:46:36;;;;;;;0.10;0.10;;;23.70;99.90;;;;;;4994724;28;20191;-82
2023/09/05 08:49:02;;;;;;;0.10;0.10;;;23.60;99.90;;;;;;4980420;28;20271;-82
2023/09/05 08:51:35;;;;;;;0.10;0.10;;;23.80;99.90;;;;;;4996256;28;20418;-82
2023/09/05 08:54:03;;;;;;;0.10;0.10;;;24.00;99.90;;;;;;4988466;28;20190;-82
2023/09/05 08:56:29;;;;;;;0.10;0.10;;;23.90;99.90;;;;;;4981064;28;20190;-82
2023/09/05 08:58:59;;;;;;;0.10;0.10;;;23.80;99.90;;;;;;4978563;28;20192;-82
2023/09/05 09:01:25;;;;;;;0.10;0.10;;;24.10;99.90;;;;;;4985355;28;20582;-82
2023/09/05 09:03:51;;;;;;;0.10;0.10;;;24.30;99.90;;;;;;4988110;28;20204;-82
2023/09/05 09:06:24;;;;;;;0.10;0.10;;;24.10;99.90;;;;;;4993140;28;20192;-82
2023/09/05 09:08:50;;;;;;;0.10;0.10;;;24.00;99.90;;;;;;4979375;28;21069;-83
2023/09/05 09:11:22;;;;;;;0.10;0.10;;;24.10;99.90;;;;;;4977841;28;20211;-82
2023/09/05 09:13:50;;;;;;;0.10;0.10;;;24.40;99.90;;;;;;4978472;28;20192;-82
2023/09/05 09:16:18;;;;;;;0.10;0.10;;;24.60;99.90;;;;;;4986744;28;20184;-82
2023/09/05 09:18:59;;;;;;;0.10;0.10;;;24.40;99.90;;;;;;4985085;28;20207;-81
2023/09/05 09:21:27;;;;;;;0.10;0.10;;;24.60;99.90;;;;;;4979013;28;20222;-80
2023/09/05 09:24:05;;;;;;;0.10;0.10;;;25.10;99.90;;;;;;4986120;28;20215;-81
2023/09/05 09:26:32;;;;;;;0.10;0.10;;;24.90;99.90;;;;;;4979369;28;21079;-81
2023/09/05 09:28:57;;;;;;;0.10;0.10;;;24.90;99.90;;;;;;4979115;28;20233;-82
2023/09/05 09:31:26;;;;;;;0.10;0.10;;;24.20;99.90;;;;;;4986016;28;20207;-82
2023/09/05 09:33:56;;;;;;;0.10;0.10;;;24.40;99.90;;;;;;4978481;28;20188;-82
2023/09/05 09:36:22;;;;;;;0.10;0.10;;;24.80;99.90;;;;;;4980665;28;20210;-83
2023/09/05 09:38:48;;;;;;;0.10;0.10;;;24.00;99.90;;;;;;4986768;28;20278;-83
2023/09/05 09:41:16;;;;;;;0.10;0.10;;;24.30;99.90;;;;;;4985592;28;20215;-81
2023/09/05 09:43:41;;;;;;;0.10;0.10;;;24.10;99.90;;;;;;4978847;28;20193;-81
2023/09/05 09:46:10;;;;;;;0.10;0.10;;;24.50;99.90;;;;;;4978425;28;22147;-81
2023/09/05 09:48:36;;;;;;;0.10;0.10;;;24.80;99.90;;;;;;4991267;28;20188;-82
2023/09/05 09:51:06;;;;;;;0.10;0.10;;;24.80;99.90;;;;;;4983508;28;20459;-81
2023/09/05 09:53:38;;;;;;;0.10;0.10;;;24.60;99.90;;;;;;4995089;28;20192;-81
2023/09/05 09:56:11;;;;;;;0.10;0.10;;;24.40;99.90;;;;;;4981139;28;20530;-81
2023/09/05 09:58:42;;;;;;;0.10;0.10;;;25.00;99.90;;;;;;4980830;28;20187;-81
2023/09/05 10:01:12;;;;;;;0.10;0.10;;;25.20;99.90;;;;;;4979941;28;20208;-81
2023/09/05 10:03:39;;;;;;;0.10;0.10;;;25.40;99.90;;;;;;4980342;28;20612;-81
2023/09/05 10:06:06;;;;;;;0.10;0.10;;;25.50;99.90;;;;;;4977704;28;20188;-81
2023/09/05 10:08:33;;;;;;;0.10;0.10;;;24.60;99.90;;;;;;4977700;28;20189;-81
2023/09/05 10:10:59;;;;;;;0.10;0.10;;;24.90;99.90;;;;;;4977916;28;20577;-81
2023/09/05 10:13:27;;;;;;;0.10;0.10;;;25.30;99.90;;;;;;4985673;28;20192;-81
2023/09/05 10:15:57;;;;;;;0.10;0.10;;;24.90;99.90;;;;;;4992784;28;20255;-81
2023/09/05 10:18:23;;;;;;;0.10;0.10;;;24.70;99.90;;;;;;4986101;28;20192;-81
2023/09/05 10:20:50;;;;;;;0.10;0.10;;;25.20;99.90;;;;;;4978784;28;20212;-81
2023/09/05 10:23:18;;;;;;;0.10;0.10;;;25.20;99.90;;;;;;4978581;28;20218;-81
2023/09/05 10:25:44;;;;;;;0.10;0.10;;;24.80;99.90;;;;;;4979255;28;20606;-81
2023/09/05 10:28:10;;;;;;;0.10;0.10;;;25.20;99.90;;;;;;4979015;28;20311;-81
2023/09/05 10:30:40;;;;;;;0.10;0.10;;;25.70;99.90;;;;;;4978814;28;20278;-81
2023/09/05 10:33:08;;;;;;;14.47;13.57;;;25.60;99.90;;;;;;4992961;28;20184;-81
2023/09/05 10:35:33;;;;;;;0.10;0.10;;;25.40;99.90;;;;;;4979287;28;20200;-81
2023/09/05 10:38:01;;;;;;;0.10;0.10;;;25.60;99.90;;;;;;4978845;28;20238;-81
2023/09/05 10:40:38;;;;;;;0.10;0.10;;;25.60;99.90;;;;;;4976991;28;20685;-81
2023/09/05 10:43:08;;;;;;;0.10;0.10;;;25.80;99.90;;;;;;4981882;28;20215;-82
2023/09/05 10:45:36;;;;;;;0.10;0.10;;;25.90;99.90;;;;;;4977409;28;20180;-82
2023/09/05 10:48:15;;;;;;;0.10;0.10;;;25.00;99.90;;;;;;4983919;28;20275;-81
2023/09/05 10:51:18;;;;;;;0.10;0.10;;;25.40;99.90;;;;;;4976016;28;20208;-81
2023/09/05 10:53:48;;;;;;;0.10;0.10;;;25.60;99.90;;;;;;4977079;28;20187;-81
2023/09/05 10:56:50;;;;;;;0.10;0.10;;;25.40;99.90;;;;;;4993345;28;20188;-81
2023/09/05 10:59:26;;;;;;;0.10;0.10;;;25.90;99.90;;;;;;4974772;28;20586;-82
2023/09/05 11:01:56;;;;;;;0.10;0.10;;;26.10;99.90;;;;;;4977141;28;20242;-82
2023/09/05 11:04:26;;;;;;;0.10;0.10;;;26.10;99.90;;;;;;4974118;28;20737;-82
2023/09/05 11:07:00;;;;;;;0.10;0.10;;;26.60;99.90;;;;;;4979010;28;20176;-82
2023/09/05 11:09:26;;;;;;;0.10;0.10;;;26.40;99.90;;;;;;4986281;28;20184;-82
2023/09/05 11:11:52;;;;;;;0.10;0.10;;;26.60;99.90;;;;;;4987349;28;20216;-83
2023/09/05 11:14:29;;;;;;;0.10;0.10;;;26.50;99.90;;;;;;4981856;28;20669;-80
2023/09/05 11:16:56;;;;;;;0.10;0.10;;;26.50;99.90;;;;;;4984560;28;20310;-80
2023/09/05 11:19:38;;;;;;;0.10;0.10;;;26.70;99.90;;;;;;4980824;28;20180;-80
2023/09/05 11:22:22;;;;;;;0.10;0.10;;;26.90;99.90;;;;;;4982845;28;20299;-80
2023/09/05 11:24:51;;;;;;;0.10;0.10;;;27.10;99.90;;;;;;4992010;28;20718;-80
2023/09/05 11:27:29;;;;;;;0.10;0.10;;;27.10;99.90;;;;;;4985897;28;20533;-80
2023/09/05 11:29:58;;;;;;;0.10;0.10;;;27.00;99.90;;;;;;4981849;28;20191;-80
2023/09/05 11:32:32;;;;;;;0.10;0.10;;;26.80;99.90;;;;;;4986665;28;20587;-80
2023/09/05 11:34:58;;;;;;;0.10;0.10;;;26.80;99.90;;;;;;4986549;28;20599;-81
2023/09/05 11:37:24;;;;;;;0.10;0.10;;;27.00;99.90;;;;;;4980457;28;20623;-81
2023/09/05 11:39:51;;;;;;;0.10;0.10;;;27.10;99.90;;;;;;4983919;28;20191;-80
2023/09/05 11:42:19;;;;;;;0.10;0.10;;;26.80;99.90;;;;;;4982093;28;20214;-80
2023/09/05 11:44:45;;;;;;;0.10;0.10;;;27.00;99.90;;;;;;4991230;28;20176;-81
2023/09/05 11:47:13;;;;;;;0.10;0.10;;;27.30;99.90;;;;;;4988548;28;20254;-81
2023/09/05 11:49:39;;;;;;;0.10;0.10;;;26.70;99.90;;;;;;4983394;28;20234;-81
2023/09/05 11:52:05;;;;;;;0.10;0.10;;;27.20;99.90;;;;;;4984542;28;20215;-80
2023/09/05 11:54:32;;;;;;;0.10;0.10;;;27.40;99.90;;;;;;4985786;28;20195;-80
2023/09/05 11:56:58;;;;;;;0.10;0.10;;;27.40;99.90;;;;;;4981602;28;20628;-80
2023/09/05 11:59:25;;;;;;;0.63;0.63;;;27.20;99.90;;;;;;4979218;28;20196;-81
2023/09/05 12:01:52;;;;;;;0.10;0.10;;;26.80;99.90;;;;;;4980119;28;20335;-81
2023/09/05 12:04:18;;;;;;;0.10;0.10;;;26.50;99.90;;;;;;4988236;28;20181;-82
2023/09/05 12:06:49;;;;;;;0.13;0.13;;;26.50;99.90;;;;;;4989345;28;20697;-80
2023/09/05 12:09:14;;;;;;;0.10;0.10;;;26.70;99.90;;;;;;4983367;28;20177;-80
2023/09/05 12:11:40;;;;;;;0.10;0.10;;;26.60;99.90;;;;;;4990443;28;20207;-80
2023/09/05 12:14:06;;;;;;;0.10;0.10;;;26.70;99.90;;;;;;4983237;28;20216;-80
2023/09/05 12:16:32;;;;;;;0.10;0.10;;;27.10;99.90;;;;;;4981555;28;20202;-82
2023/09/05 12:18:59;;;;;;;0.10;0.10;;;26.90;99.90;;;;;;4981405;28;20184;-82
2023/09/05 12:21:26;;;;;;;0.10;0.10;;;27.00;99.90;;;;;;4982412;28;20232;-82
2023/09/05 12:23:52;;;;;;;0.10;0.10;;;27.20;99.90;;;;;;4981026;28;20212;-82
2023/09/05 12:26:18;;;;;;;0.10;0.10;;;27.40;99.90;;;;;;4977707;28;20235;-81
2023/09/05 12:28:53;;;;;;;0.10;0.10;;;27.60;99.90;;;;;;4983200;28;20208;-82
2023/09/05 12:31:20;;;;;;;0.10;0.10;;;27.80;99.90;;;;;;4981958;28;20674;-81
2023/09/05 12:33:46;;;;;;;0.10;0.10;;;27.50;99.90;;;;;;4981395;28;20275;-82
2023/09/05 12:36:12;;;;;;;0.10;0.10;;;27.80;99.90;;;;;;4987267;28;20307;-82
2023/09/05 12:38:37;;;;;;;0.10;0.10;;;27.10;99.90;;;;;;4979408;28;20196;-82
2023/09/05 12:41:03;;;;;;;0.10;0.10;;;27.30;99.90;;;;;;4981411;28;20635;-82
2023/09/05 12:43:29;;;;;;;0.10;0.10;;;27.60;99.90;;;;;;4978804;28;20218;-82
2023/09/05 12:45:54;;;;;;;0.10;0.10;;;27.50;99.90;;;;;;4982010;28;20204;-81
2023/09/05 12:48:20;;;;;;;0.10;0.10;;;27.90;99.90;;;;;;4984752;28;20184;-81
2023/09/05 12:50:48;;;;;;;0.10;0.10;;;27.40;99.90;;;;;;4981596;28;20267;-80